KRTN/RTN METAR and TAF weather

Enter ICAO airport designator
Station Type Date Time Source
KRTN METAR 2019/10/21 01:53 UTC NOAA

KRTN 210153Z AUTO 31012KT 10SM CLR 06/M19 A2991 RMK AO2 SLP085 T00561194


Station Type Date Time Source
KRTN Decoded METAR 2019/10/21 01:53 UTC NOAA

Raton, Raton Municipal \ Crews Field Airport, NM, United States (KRTN) 36-44-31N 104-39-28W 1939M
Oct 20, 2019 - 09:53 PM EDT / 2019.10.21 0153 UTC
Wind: from the NW (310 degrees) at 14 MPH (12 KT):0
Visibility: 10 mile(s):0
Sky conditions: clear
Temperature: 42.1 F (5.6 C)
Dew Point: -2.9 F (-19.4 C)
Relative Humidity: 14%
Pressure (altimeter): 29.91 in. Hg (1012 hPa)
ob: KRTN 210153Z AUTO 31012KT 10SM CLR 06/M19 A2991 RMK AO2 SLP085 T00561194
cycle: 2

Station Type Date Time Source
KRTN TAF UTC NOAA

Error!

Example: see airport list